sensor_id;sensor_type;location;lat;lon;timestamp;P1;durP1;ratioP1;P2;durP2;ratioP2
21245;SDS011;10781;50.928;4.440;2023-11-21T00:00:13;55.78;;;26.08;;
21245;SDS011;10781;50.928;4.440;2023-11-21T00:02:40;56.83;;;25.73;;
21245;SDS011;10781;50.928;4.440;2023-11-21T00:05:10;58.65;;;25.33;;
21245;SDS011;10781;50.928;4.440;2023-11-21T00:07:39;62.58;;;25.63;;
21245;SDS011;10781;50.928;4.440;2023-11-21T00:10:08;58.78;;;26.38;;
21245;SDS011;10781;50.928;4.440;2023-11-21T00:12:35;56.53;;;26.15;;
21245;SDS011;10781;50.928;4.440;2023-11-21T00:15:02;54.25;;;24.88;;
21245;SDS011;10781;50.928;4.440;2023-11-21T00:17:34;55.45;;;24.70;;
21245;SDS011;10781;50.928;4.440;2023-11-21T00:20:00;61.97;;;25.90;;
21245;SDS011;10781;50.928;4.440;2023-11-21T00:22:25;57.05;;;26.52;;
21245;SDS011;10781;50.928;4.440;2023-11-21T00:24:51;58.95;;;24.90;;
21245;SDS011;10781;50.928;4.440;2023-11-21T00:27:17;59.05;;;25.30;;
21245;SDS011;10781;50.928;4.440;2023-11-21T00:29:43;67.47;;;28.60;;
21245;SDS011;10781;50.928;4.440;2023-11-21T00:32:08;57.72;;;25.52;;
21245;SDS011;10781;50.928;4.440;2023-11-21T00:34:34;60.38;;;26.35;;
21245;SDS011;10781;50.928;4.440;2023-11-21T00:37:00;59.80;;;27.15;;
21245;SDS011;10781;50.928;4.440;2023-11-21T00:39:25;64.63;;;27.00;;
21245;SDS011;10781;50.928;4.440;2023-11-21T00:41:51;62.88;;;25.60;;
21245;SDS011;10781;50.928;4.440;2023-11-21T00:44:17;60.05;;;23.88;;
21245;SDS011;10781;50.928;4.440;2023-11-21T00:46:43;61.05;;;26.13;;
21245;SDS011;10781;50.928;4.440;2023-11-21T00:49:09;58.60;;;27.58;;
21245;SDS011;10781;50.928;4.440;2023-11-21T00:51:34;61.13;;;24.83;;
21245;SDS011;10781;50.928;4.440;2023-11-21T00:54:00;55.00;;;24.45;;
21245;SDS011;10781;50.928;4.440;2023-11-21T00:56:26;62.72;;;25.20;;
21245;SDS011;10781;50.928;4.440;2023-11-21T00:58:53;57.65;;;23.77;;
21245;SDS011;10781;50.928;4.440;2023-11-21T01:01:19;53.40;;;23.25;;
21245;SDS011;10781;50.928;4.440;2023-11-21T01:03:48;58.15;;;23.75;;
21245;SDS011;10781;50.928;4.440;2023-11-21T01:06:14;59.35;;;25.13;;
21245;SDS011;10781;50.928;4.440;2023-11-21T01:08:40;60.28;;;23.80;;
21245;SDS011;10781;50.928;4.440;2023-11-21T01:11:06;65.95;;;26.33;;
21245;SDS011;10781;50.928;4.440;2023-11-21T01:13:36;56.20;;;24.80;;
21245;SDS011;10781;50.928;4.440;2023-11-21T01:16:02;57.47;;;23.77;;
21245;SDS011;10781;50.928;4.440;2023-11-21T01:18:28;60.10;;;24.38;;
21245;SDS011;10781;50.928;4.440;2023-11-21T01:20:54;58.25;;;24.27;;
21245;SDS011;10781;50.928;4.440;2023-11-21T01:23:20;55.90;;;24.38;;
21245;SDS011;10781;50.928;4.440;2023-11-21T01:25:45;53.92;;;24.25;;
21245;SDS011;10781;50.928;4.440;2023-11-21T01:28:11;57.85;;;25.17;;
21245;SDS011;10781;50.928;4.440;2023-11-21T01:30:37;56.83;;;24.33;;
21245;SDS011;10781;50.928;4.440;2023-11-21T01:33:02;54.10;;;23.55;;
21245;SDS011;10781;50.928;4.440;2023-11-21T01:35:29;55.78;;;24.42;;
21245;SDS011;10781;50.928;4.440;2023-11-21T01:37:55;59.30;;;24.20;;
21245;SDS011;10781;50.928;4.440;2023-11-21T01:40:21;51.15;;;23.70;;
21245;SDS011;10781;50.928;4.440;2023-11-21T01:42:46;59.20;;;24.05;;
21245;SDS011;10781;50.928;4.440;2023-11-21T01:45:13;56.42;;;24.67;;
21245;SDS011;10781;50.928;4.440;2023-11-21T01:47:39;63.13;;;23.90;;
21245;SDS011;10781;50.928;4.440;2023-11-21T01:50:07;56.72;;;23.08;;
21245;SDS011;10781;50.928;4.440;2023-11-21T01:52:37;55.88;;;22.75;;
21245;SDS011;10781;50.928;4.440;2023-11-21T01:55:04;54.83;;;23.95;;
21245;SDS011;10781;50.928;4.440;2023-11-21T01:57:31;53.42;;;23.63;;
21245;SDS011;10781;50.928;4.440;2023-11-21T01:59:57;53.97;;;23.17;;
21245;SDS011;10781;50.928;4.440;2023-11-21T02:02:26;49.47;;;22.10;;
21245;SDS011;10781;50.928;4.440;2023-11-21T02:04:51;51.95;;;23.92;;
21245;SDS011;10781;50.928;4.440;2023-11-21T02:07:17;54.67;;;23.73;;
21245;SDS011;10781;50.928;4.440;2023-11-21T02:09:44;50.85;;;23.55;;
21245;SDS011;10781;50.928;4.440;2023-11-21T02:12:10;61.53;;;24.00;;
21245;SDS011;10781;50.928;4.440;2023-11-21T02:14:36;56.22;;;24.10;;
21245;SDS011;10781;50.928;4.440;2023-11-21T02:17:02;59.28;;;24.55;;
21245;SDS011;10781;50.928;4.440;2023-11-21T02:19:28;53.72;;;23.73;;
21245;SDS011;10781;50.928;4.440;2023-11-21T02:21:54;54.25;;;23.35;;
21245;SDS011;10781;50.928;4.440;2023-11-21T02:24:24;56.53;;;23.48;;
21245;SDS011;10781;50.928;4.440;2023-11-21T02:26:50;48.03;;;22.38;;
21245;SDS011;10781;50.928;4.440;2023-11-21T02:29:19;49.80;;;21.70;;
21245;SDS011;10781;50.928;4.440;2023-11-21T02:31:53;48.17;;;21.52;;
21245;SDS011;10781;50.928;4.440;2023-11-21T02:34:20;46.03;;;21.48;;
21245;SDS011;10781;50.928;4.440;2023-11-21T02:36:46;41.28;;;19.30;;
21245;SDS011;10781;50.928;4.440;2023-11-21T02:39:14;46.50;;;20.52;;
21245;SDS011;10781;50.928;4.440;2023-11-21T02:41:41;42.47;;;20.17;;
21245;SDS011;10781;50.928;4.440;2023-11-21T02:44:07;36.45;;;18.95;;
21245;SDS011;10781;50.928;4.440;2023-11-21T02:46:35;40.10;;;18.60;;
21245;SDS011;10781;50.928;4.440;2023-11-21T02:49:02;40.67;;;18.42;;
21245;SDS011;10781;50.928;4.440;2023-11-21T02:51:29;36.03;;;18.50;;
21245;SDS011;10781;50.928;4.440;2023-11-21T02:53:58;42.00;;;19.92;;
21245;SDS011;10781;50.928;4.440;2023-11-21T02:56:25;35.63;;;18.77;;
21245;SDS011;10781;50.928;4.440;2023-11-21T02:58:51;41.25;;;19.13;;
21245;SDS011;10781;50.928;4.440;2023-11-21T03:01:17;44.00;;;20.95;;
21245;SDS011;10781;50.928;4.440;2023-11-21T03:03:43;42.15;;;19.73;;
21245;SDS011;10781;50.928;4.440;2023-11-21T03:06:09;38.53;;;19.67;;
21245;SDS011;10781;50.928;4.440;2023-11-21T03:08:35;45.05;;;21.67;;
21245;SDS011;10781;50.928;4.440;2023-11-21T03:11:00;54.67;;;31.10;;
21245;SDS011;10781;50.928;4.440;2023-11-21T03:13:28;38.92;;;20.60;;
21245;SDS011;10781;50.928;4.440;2023-11-21T03:15:54;32.47;;;18.25;;
21245;SDS011;10781;50.928;4.440;2023-11-21T03:18:19;39.85;;;18.73;;
21245;SDS011;10781;50.928;4.440;2023-11-21T03:20:47;37.40;;;18.75;;
21245;SDS011;10781;50.928;4.440;2023-11-21T03:23:13;37.85;;;20.92;;
21245;SDS011;10781;50.928;4.440;2023-11-21T03:25:38;41.10;;;20.15;;
21245;SDS011;10781;50.928;4.440;2023-11-21T03:28:04;29.85;;;16.42;;
21245;SDS011;10781;50.928;4.440;2023-11-21T03:30:30;34.15;;;17.67;;
21245;SDS011;10781;50.928;4.440;2023-11-21T03:32:56;38.05;;;18.50;;
21245;SDS011;10781;50.928;4.440;2023-11-21T03:35:21;32.05;;;17.83;;
21245;SDS011;10781;50.928;4.440;2023-11-21T03:37:48;36.20;;;16.88;;
21245;SDS011;10781;50.928;4.440;2023-11-21T03:40:13;35.97;;;16.92;;
21245;SDS011;10781;50.928;4.440;2023-11-21T03:42:39;29.98;;;16.83;;
21245;SDS011;10781;50.928;4.440;2023-11-21T03:45:05;32.75;;;17.45;;
21245;SDS011;10781;50.928;4.440;2023-11-21T03:47:31;32.92;;;16.67;;
21245;SDS011;10781;50.928;4.440;2023-11-21T03:49:57;38.00;;;17.77;;
21245;SDS011;10781;50.928;4.440;2023-11-21T03:52:25;36.65;;;17.10;;
21245;SDS011;10781;50.928;4.440;2023-11-21T03:54:53;35.28;;;18.10;;
21245;SDS011;10781;50.928;4.440;2023-11-21T03:57:20;34.90;;;17.30;;
21245;SDS011;10781;50.928;4.440;2023-11-21T03:59:46;32.78;;;17.30;;
21245;SDS011;10781;50.928;4.440;2023-11-21T04:02:12;36.03;;;18.17;;
21245;SDS011;10781;50.928;4.440;2023-11-21T04:04:37;33.15;;;16.88;;
21245;SDS011;10781;50.928;4.440;2023-11-21T04:07:03;32.20;;;14.95;;
21245;SDS011;10781;50.928;4.440;2023-11-21T04:09:29;33.03;;;15.02;;
21245;SDS011;10781;50.928;4.440;2023-11-21T04:11:55;28.30;;;15.02;;
21245;SDS011;10781;50.928;4.440;2023-11-21T04:14:21;30.27;;;15.15;;
21245;SDS011;10781;50.928;4.440;2023-11-21T04:16:47;32.92;;;14.95;;
21245;SDS011;10781;50.928;4.440;2023-11-21T04:19:13;29.52;;;14.98;;
21245;SDS011;10781;50.928;4.440;2023-11-21T04:21:42;34.28;;;15.65;;
21245;SDS011;10781;50.928;4.440;2023-11-21T04:24:08;34.25;;;15.80;;
21245;SDS011;10781;50.928;4.440;2023-11-21T04:26:33;30.38;;;14.35;;
21245;SDS011;10781;50.928;4.440;2023-11-21T04:28:59;31.80;;;14.43;;
21245;SDS011;10781;50.928;4.440;2023-11-21T04:31:25;31.40;;;15.18;;
21245;SDS011;10781;50.928;4.440;2023-11-21T04:33:50;28.77;;;14.65;;
21245;SDS011;10781;50.928;4.440;2023-11-21T04:36:16;29.80;;;14.75;;
21245;SDS011;10781;50.928;4.440;2023-11-21T04:38:42;30.50;;;16.08;;
21245;SDS011;10781;50.928;4.440;2023-11-21T04:41:08;35.70;;;17.65;;
21245;SDS011;10781;50.928;4.440;2023-11-21T04:43:33;32.40;;;16.35;;
21245;SDS011;10781;50.928;4.440;2023-11-21T04:45:59;32.83;;;16.58;;
21245;SDS011;10781;50.928;4.440;2023-11-21T04:48:25;34.97;;;17.50;;
21245;SDS011;10781;50.928;4.440;2023-11-21T04:50:51;32.85;;;17.00;;
21245;SDS011;10781;50.928;4.440;2023-11-21T04:53:16;35.78;;;17.15;;
21245;SDS011;10781;50.928;4.440;2023-11-21T04:55:42;33.20;;;17.48;;
21245;SDS011;10781;50.928;4.440;2023-11-21T04:58:09;35.95;;;17.52;;
21245;SDS011;10781;50.928;4.440;2023-11-21T05:00:35;39.35;;;18.05;;
21245;SDS011;10781;50.928;4.440;2023-11-21T05:03:01;41.92;;;18.20;;
21245;SDS011;10781;50.928;4.440;2023-11-21T05:05:28;37.10;;;18.80;;
21245;SDS011;10781;50.928;4.440;2023-11-21T05:07:57;38.30;;;17.73;;
21245;SDS011;10781;50.928;4.440;2023-11-21T05:10:23;34.90;;;18.33;;
21245;SDS011;10781;50.928;4.440;2023-11-21T05:12:48;44.65;;;18.92;;
21245;SDS011;10781;50.928;4.440;2023-11-21T05:15:15;39.50;;;19.25;;
21245;SDS011;10781;50.928;4.440;2023-11-21T05:17:42;37.20;;;17.92;;
21245;SDS011;10781;50.928;4.440;2023-11-21T05:20:13;35.45;;;17.10;;
21245;SDS011;10781;50.928;4.440;2023-11-21T05:22:39;31.75;;;17.40;;
21245;SDS011;10781;50.928;4.440;2023-11-21T05:25:06;34.58;;;18.17;;
21245;SDS011;10781;50.928;4.440;2023-11-21T05:27:33;36.63;;;18.05;;
21245;SDS011;10781;50.928;4.440;2023-11-21T05:30:00;35.85;;;17.73;;
21245;SDS011;10781;50.928;4.440;2023-11-21T05:32:37;38.42;;;19.27;;
21245;SDS011;10781;50.928;4.440;2023-11-21T05:35:03;41.30;;;18.98;;
21245;SDS011;10781;50.928;4.440;2023-11-21T05:37:34;38.90;;;18.63;;
21245;SDS011;10781;50.928;4.440;2023-11-21T05:40:00;35.22;;;18.63;;
21245;SDS011;10781;50.928;4.440;2023-11-21T05:42:31;36.63;;;18.20;;
21245;SDS011;10781;50.928;4.440;2023-11-21T05:45:00;38.67;;;18.48;;
21245;SDS011;10781;50.928;4.440;2023-11-21T05:47:43;36.53;;;17.63;;
21245;SDS011;10781;50.928;4.440;2023-11-21T05:50:11;36.22;;;18.98;;
21245;SDS011;10781;50.928;4.440;2023-11-21T05:52:39;33.53;;;18.67;;
21245;SDS011;10781;50.928;4.440;2023-11-21T05:55:06;33.33;;;18.17;;
21245;SDS011;10781;50.928;4.440;2023-11-21T05:57:36;31.95;;;18.10;;
21245;SDS011;10781;50.928;4.440;2023-11-21T06:00:07;37.20;;;19.55;;
21245;SDS011;10781;50.928;4.440;2023-11-21T06:02:43;36.42;;;18.90;;
21245;SDS011;10781;50.928;4.440;2023-11-21T06:05:10;37.80;;;20.23;;
21245;SDS011;10781;50.928;4.440;2023-11-21T06:07:36;40.50;;;20.65;;
21245;SDS011;10781;50.928;4.440;2023-11-21T06:10:03;35.05;;;19.95;;
21245;SDS011;10781;50.928;4.440;2023-11-21T06:12:32;36.85;;;19.95;;
21245;SDS011;10781;50.928;4.440;2023-11-21T06:15:01;36.85;;;20.25;;
21245;SDS011;10781;50.928;4.440;2023-11-21T06:17:30;41.40;;;20.50;;
21245;SDS011;10781;50.928;4.440;2023-11-21T06:20:01;38.30;;;20.63;;
21245;SDS011;10781;50.928;4.440;2023-11-21T06:22:37;35.30;;;19.92;;
21245;SDS011;10781;50.928;4.440;2023-11-21T06:25:05;36.95;;;19.10;;
21245;SDS011;10781;50.928;4.440;2023-11-21T06:27:33;38.38;;;19.77;;
21245;SDS011;10781;50.928;4.440;2023-11-21T06:30:01;44.85;;;20.92;;
21245;SDS011;10781;50.928;4.440;2023-11-21T06:32:27;39.95;;;21.33;;
21245;SDS011;10781;50.928;4.440;2023-11-21T06:34:54;37.08;;;19.95;;
21245;SDS011;10781;50.928;4.440;2023-11-21T06:37:20;35.78;;;20.35;;
21245;SDS011;10781;50.928;4.440;2023-11-21T06:39:48;39.53;;;20.35;;
21245;SDS011;10781;50.928;4.440;2023-11-21T06:42:14;39.58;;;20.83;;
21245;SDS011;10781;50.928;4.440;2023-11-21T06:44:40;42.20;;;22.00;;
21245;SDS011;10781;50.928;4.440;2023-11-21T06:47:06;40.22;;;21.13;;
21245;SDS011;10781;50.928;4.440;2023-11-21T06:49:32;36.05;;;20.23;;
21245;SDS011;10781;50.928;4.440;2023-11-21T06:51:58;40.53;;;20.55;;
21245;SDS011;10781;50.928;4.440;2023-11-21T06:54:24;34.97;;;20.92;;
21245;SDS011;10781;50.928;4.440;2023-11-21T06:56:51;37.50;;;19.25;;
21245;SDS011;10781;50.928;4.440;2023-11-21T06:59:18;35.95;;;19.38;;
21245;SDS011;10781;50.928;4.440;2023-11-21T07:01:44;40.28;;;21.20;;
21245;SDS011;10781;50.928;4.440;2023-11-21T07:04:09;37.28;;;19.52;;
21245;SDS011;10781;50.928;4.440;2023-11-21T07:06:35;41.53;;;21.42;;
21245;SDS011;10781;50.928;4.440;2023-11-21T07:09:01;40.92;;;20.80;;
21245;SDS011;10781;50.928;4.440;2023-11-21T07:11:28;40.13;;;20.80;;
21245;SDS011;10781;50.928;4.440;2023-11-21T07:13:54;41.50;;;21.77;;
21245;SDS011;10781;50.928;4.440;2023-11-21T07:16:19;39.42;;;21.60;;
21245;SDS011;10781;50.928;4.440;2023-11-21T07:18:45;48.92;;;20.98;;
21245;SDS011;10781;50.928;4.440;2023-11-21T07:21:11;42.17;;;22.20;;
21245;SDS011;10781;50.928;4.440;2023-11-21T07:23:37;38.30;;;22.35;;
21245;SDS011;10781;50.928;4.440;2023-11-21T07:26:03;43.03;;;22.40;;
21245;SDS011;10781;50.928;4.440;2023-11-21T07:28:34;43.05;;;22.15;;
21245;SDS011;10781;50.928;4.440;2023-11-21T07:31:00;43.30;;;22.23;;
21245;SDS011;10781;50.928;4.440;2023-11-21T07:33:26;43.45;;;21.77;;
21245;SDS011;10781;50.928;4.440;2023-11-21T07:35:52;45.25;;;23.23;;
21245;SDS011;10781;50.928;4.440;2023-11-21T07:38:18;46.03;;;23.00;;
21245;SDS011;10781;50.928;4.440;2023-11-21T07:40:43;48.90;;;25.73;;
21245;SDS011;10781;50.928;4.440;2023-11-21T07:43:09;56.78;;;26.27;;
21245;SDS011;10781;50.928;4.440;2023-11-21T07:45:35;60.35;;;26.17;;
21245;SDS011;10781;50.928;4.440;2023-11-21T07:48:01;47.53;;;27.33;;
21245;SDS011;10781;50.928;4.440;2023-11-21T07:50:28;57.03;;;29.75;;
21245;SDS011;10781;50.928;4.440;2023-11-21T07:52:54;49.85;;;26.85;;
21245;SDS011;10781;50.928;4.440;2023-11-21T07:55:20;52.35;;;27.13;;
21245;SDS011;10781;50.928;4.440;2023-11-21T07:57:46;47.47;;;25.50;;
21245;SDS011;10781;50.928;4.440;2023-11-21T08:00:12;51.17;;;26.17;;
21245;SDS011;10781;50.928;4.440;2023-11-21T08:02:40;48.70;;;24.65;;
21245;SDS011;10781;50.928;4.440;2023-11-21T08:05:11;48.08;;;25.55;;
21245;SDS011;10781;50.928;4.440;2023-11-21T08:07:37;47.70;;;25.20;;
21245;SDS011;10781;50.928;4.440;2023-11-21T08:10:03;49.58;;;24.95;;
21245;SDS011;10781;50.928;4.440;2023-11-21T08:12:32;75.43;;;28.38;;
21245;SDS011;10781;50.928;4.440;2023-11-21T08:14:57;81.70;;;28.10;;
21245;SDS011;10781;50.928;4.440;2023-11-21T08:17:23;78.18;;;29.30;;
21245;SDS011;10781;50.928;4.440;2023-11-21T08:19:49;68.70;;;28.98;;
21245;SDS011;10781;50.928;4.440;2023-11-21T08:22:16;97.38;;;30.23;;
21245;SDS011;10781;50.928;4.440;2023-11-21T08:24:43;74.53;;;29.25;;
21245;SDS011;10781;50.928;4.440;2023-11-21T08:27:09;63.97;;;26.45;;
21245;SDS011;10781;50.928;4.440;2023-11-21T08:29:34;43.95;;;22.13;;
21245;SDS011;10781;50.928;4.440;2023-11-21T08:32:01;42.75;;;23.38;;
21245;SDS011;10781;50.928;4.440;2023-11-21T08:34:27;54.72;;;24.00;;
21245;SDS011;10781;50.928;4.440;2023-11-21T08:36:53;54.58;;;24.55;;
21245;SDS011;10781;50.928;4.440;2023-11-21T08:39:20;52.70;;;24.52;;
21245;SDS011;10781;50.928;4.440;2023-11-21T08:41:49;51.05;;;25.02;;
21245;SDS011;10781;50.928;4.440;2023-11-21T08:44:15;50.38;;;24.38;;
21245;SDS011;10781;50.928;4.440;2023-11-21T08:46:43;56.75;;;26.23;;
21245;SDS011;10781;50.928;4.440;2023-11-21T08:49:11;56.47;;;27.35;;
21245;SDS011;10781;50.928;4.440;2023-11-21T08:51:37;63.17;;;27.90;;
21245;SDS011;10781;50.928;4.440;2023-11-21T08:54:03;54.90;;;26.17;;
21245;SDS011;10781;50.928;4.440;2023-11-21T08:56:32;53.90;;;24.75;;
21245;SDS011;10781;50.928;4.440;2023-11-21T08:58:59;60.45;;;24.05;;
21245;SDS011;10781;50.928;4.440;2023-11-21T09:01:27;57.20;;;23.48;;
21245;SDS011;10781;50.928;4.440;2023-11-21T09:03:57;57.13;;;25.27;;
21245;SDS011;10781;50.928;4.440;2023-11-21T09:06:23;65.85;;;28.25;;
21245;SDS011;10781;50.928;4.440;2023-11-21T09:08:49;62.28;;;26.08;;
21245;SDS011;10781;50.928;4.440;2023-11-21T09:11:15;67.03;;;24.38;;
21245;SDS011;10781;50.928;4.440;2023-11-21T09:13:40;68.43;;;24.45;;
21245;SDS011;10781;50.928;4.440;2023-11-21T09:16:06;62.97;;;24.60;;
21245;SDS011;10781;50.928;4.440;2023-11-21T09:18:32;65.55;;;26.25;;
21245;SDS011;10781;50.928;4.440;2023-11-21T09:20:58;69.47;;;25.67;;
21245;SDS011;10781;50.928;4.440;2023-11-21T09:23:23;64.78;;;24.88;;
21245;SDS011;10781;50.928;4.440;2023-11-21T09:25:49;66.32;;;24.27;;
21245;SDS011;10781;50.928;4.440;2023-11-21T09:28:17;65.88;;;23.75;;
21245;SDS011;10781;50.928;4.440;2023-11-21T09:30:43;59.40;;;23.42;;
21245;SDS011;10781;50.928;4.440;2023-11-21T09:33:09;62.85;;;23.00;;
21245;SDS011;10781;50.928;4.440;2023-11-21T09:35:37;51.30;;;21.55;;
21245;SDS011;10781;50.928;4.440;2023-11-21T09:38:03;48.92;;;21.23;;
21245;SDS011;10781;50.928;4.440;2023-11-21T09:40:34;49.35;;;21.33;;
21245;SDS011;10781;50.928;4.440;2023-11-21T09:43:00;42.97;;;21.77;;
21245;SDS011;10781;50.928;4.440;2023-11-21T09:45:34;42.63;;;20.15;;
21245;SDS011;10781;50.928;4.440;2023-11-21T09:48:00;39.38;;;20.85;;
21245;SDS011;10781;50.928;4.440;2023-11-21T09:50:27;39.85;;;21.27;;
21245;SDS011;10781;50.928;4.440;2023-11-21T09:52:55;39.58;;;22.88;;
21245;SDS011;10781;50.928;4.440;2023-11-21T09:55:36;47.53;;;25.60;;
21245;SDS011;10781;50.928;4.440;2023-11-21T09:58:05;43.45;;;21.77;;
21245;SDS011;10781;50.928;4.440;2023-11-21T10:00:36;42.67;;;20.52;;
21245;SDS011;10781;50.928;4.440;2023-11-21T10:03:07;38.10;;;19.77;;
21245;SDS011;10781;50.928;4.440;2023-11-21T10:05:33;34.78;;;18.80;;
21245;SDS011;10781;50.928;4.440;2023-11-21T10:08:00;34.85;;;18.45;;
21245;SDS011;10781;50.928;4.440;2023-11-21T10:10:26;34.22;;;18.50;;
21245;SDS011;10781;50.928;4.440;2023-11-21T10:12:57;36.25;;;18.90;;
21245;SDS011;10781;50.928;4.440;2023-11-21T10:15:28;34.38;;;19.90;;
21245;SDS011;10781;50.928;4.440;2023-11-21T10:17:55;33.70;;;18.30;;
21245;SDS011;10781;50.928;4.440;2023-11-21T10:20:22;33.40;;;18.48;;
21245;SDS011;10781;50.928;4.440;2023-11-21T10:22:49;32.88;;;17.60;;
21245;SDS011;10781;50.928;4.440;2023-11-21T10:25:15;34.50;;;18.23;;
21245;SDS011;10781;50.928;4.440;2023-11-21T10:27:43;29.17;;;17.33;;
21245;SDS011;10781;50.928;4.440;2023-11-21T10:30:11;30.67;;;17.23;;
21245;SDS011;10781;50.928;4.440;2023-11-21T10:32:41;28.73;;;15.85;;
21245;SDS011;10781;50.928;4.440;2023-11-21T10:35:07;30.33;;;15.77;;
21245;SDS011;10781;50.928;4.440;2023-11-21T10:37:37;30.73;;;16.40;;
21245;SDS011;10781;50.928;4.440;2023-11-21T10:40:09;28.65;;;16.20;;
21245;SDS011;10781;50.928;4.440;2023-11-21T10:42:39;33.83;;;17.02;;
21245;SDS011;10781;50.928;4.440;2023-11-21T10:45:05;26.85;;;16.42;;
21245;SDS011;10781;50.928;4.440;2023-11-21T10:47:39;30.75;;;17.10;;
21245;SDS011;10781;50.928;4.440;2023-11-21T10:50:06;28.58;;;16.45;;
21245;SDS011;10781;50.928;4.440;2023-11-21T10:52:36;29.73;;;17.23;;
21245;SDS011;10781;50.928;4.440;2023-11-21T10:55:18;30.60;;;17.40;;
21245;SDS011;10781;50.928;4.440;2023-11-21T10:57:51;32.00;;;18.13;;
21245;SDS011;10781;50.928;4.440;2023-11-21T11:00:18;30.38;;;18.55;;
21245;SDS011;10781;50.928;4.440;2023-11-21T11:02:48;41.17;;;22.65;;
21245;SDS011;10781;50.928;4.440;2023-11-21T11:05:20;49.28;;;26.67;;
21245;SDS011;10781;50.928;4.440;2023-11-21T11:07:49;56.55;;;31.38;;
21245;SDS011;10781;50.928;4.440;2023-11-21T11:10:20;52.67;;;31.95;;
21245;SDS011;10781;50.928;4.440;2023-11-21T11:12:48;52.30;;;31.33;;
21245;SDS011;10781;50.928;4.440;2023-11-21T11:15:15;41.97;;;25.00;;
21245;SDS011;10781;50.928;4.440;2023-11-21T11:17:41;27.08;;;16.85;;
21245;SDS011;10781;50.928;4.440;2023-11-21T11:20:09;29.23;;;17.10;;
21245;SDS011;10781;50.928;4.440;2023-11-21T11:28:27;29.23;;;16.95;;
21245;SDS011;10781;50.928;4.440;2023-11-21T11:36:10;24.70;;;15.77;;
21245;SDS011;10781;50.928;4.440;2023-11-21T11:38:38;25.38;;;15.73;;
21245;SDS011;10781;50.928;4.440;2023-11-21T11:41:04;24.85;;;15.65;;
21245;SDS011;10781;50.928;4.440;2023-11-21T11:43:32;24.08;;;15.05;;
21245;SDS011;10781;50.928;4.440;2023-11-21T11:45:59;27.73;;;16.50;;
21245;SDS011;10781;50.928;4.440;2023-11-21T11:48:34;24.98;;;15.18;;
21245;SDS011;10781;50.928;4.440;2023-11-21T11:51:04;28.10;;;16.98;;
21245;SDS011;10781;50.928;4.440;2023-11-21T11:53:40;24.05;;;15.70;;
21245;SDS011;10781;50.928;4.440;2023-11-21T11:56:29;23.63;;;14.93;;
21245;SDS011;10781;50.928;4.440;2023-11-21T11:59:04;23.85;;;15.80;;
21245;SDS011;10781;50.928;4.440;2023-11-21T12:01:32;23.95;;;15.13;;
21245;SDS011;10781;50.928;4.440;2023-11-21T12:06:39;22.20;;;14.80;;
21245;SDS011;10781;50.928;4.440;2023-11-21T12:09:12;21.40;;;12.95;;
21245;SDS011;10781;50.928;4.440;2023-11-21T12:11:43;21.13;;;12.57;;
21245;SDS011;10781;50.928;4.440;2023-11-21T12:14:09;19.60;;;12.00;;
21245;SDS011;10781;50.928;4.440;2023-11-21T12:16:35;16.48;;;10.77;;
21245;SDS011;10781;50.928;4.440;2023-11-21T12:19:02;14.07;;;10.27;;
21245;SDS011;10781;50.928;4.440;2023-11-21T12:21:28;14.30;;;9.70;;
21245;SDS011;10781;50.928;4.440;2023-11-21T12:23:55;15.00;;;9.57;;
21245;SDS011;10781;50.928;4.440;2023-11-21T12:26:22;13.63;;;9.13;;
21245;SDS011;10781;50.928;4.440;2023-11-21T12:28:52;16.08;;;9.40;;
21245;SDS011;10781;50.928;4.440;2023-11-21T12:31:21;14.35;;;9.02;;
21245;SDS011;10781;50.928;4.440;2023-11-21T12:33:47;13.70;;;8.60;;
21245;SDS011;10781;50.928;4.440;2023-11-21T12:36:13;12.50;;;9.30;;
21245;SDS011;10781;50.928;4.440;2023-11-21T12:38:39;16.50;;;10.15;;
21245;SDS011;10781;50.928;4.440;2023-11-21T12:41:05;13.18;;;8.95;;
21245;SDS011;10781;50.928;4.440;2023-11-21T12:43:31;11.85;;;8.23;;
21245;SDS011;10781;50.928;4.440;2023-11-21T12:46:07;11.43;;;7.90;;
21245;SDS011;10781;50.928;4.440;2023-11-21T12:48:37;7.88;;;6.50;;
21245;SDS011;10781;50.928;4.440;2023-11-21T12:51:07;7.03;;;5.28;;
21245;SDS011;10781;50.928;4.440;2023-11-21T12:53:34;9.20;;;6.53;;
21245;SDS011;10781;50.928;4.440;2023-11-21T12:56:07;8.25;;;6.72;;
21245;SDS011;10781;50.928;4.440;2023-11-21T12:58:37;20.98;;;16.38;;
21245;SDS011;10781;50.928;4.440;2023-11-21T13:01:04;12.52;;;7.97;;
21245;SDS011;10781;50.928;4.440;2023-11-21T13:03:36;10.65;;;8.20;;
21245;SDS011;10781;50.928;4.440;2023-11-21T13:06:03;11.80;;;9.07;;
21245;SDS011;10781;50.928;4.440;2023-11-21T13:08:30;12.52;;;9.32;;
21245;SDS011;10781;50.928;4.440;2023-11-21T13:10:58;11.45;;;9.63;;
21245;SDS011;10781;50.928;4.440;2023-11-21T13:13:24;9.25;;;8.05;;
21245;SDS011;10781;50.928;4.440;2023-11-21T13:15:53;12.52;;;8.23;;
21245;SDS011;10781;50.928;4.440;2023-11-21T13:18:23;15.88;;;9.00;;
21245;SDS011;10781;50.928;4.440;2023-11-21T13:20:52;12.18;;;8.60;;
21245;SDS011;10781;50.928;4.440;2023-11-21T13:23:18;13.75;;;10.60;;
21245;SDS011;10781;50.928;4.440;2023-11-21T13:25:44;30.98;;;23.77;;
21245;SDS011;10781;50.928;4.440;2023-11-21T13:28:14;39.97;;;29.23;;
21245;SDS011;10781;50.928;4.440;2023-11-21T13:30:40;132.95;;;94.70;;
21245;SDS011;10781;50.928;4.440;2023-11-21T13:33:07;32.30;;;28.58;;
21245;SDS011;10781;50.928;4.440;2023-11-21T13:35:34;19.83;;;15.27;;
21245;SDS011;10781;50.928;4.440;2023-11-21T13:38:12;32.60;;;28.02;;
21245;SDS011;10781;50.928;4.440;2023-11-21T13:40:40;12.52;;;7.35;;
21245;SDS011;10781;50.928;4.440;2023-11-21T13:43:12;10.27;;;7.20;;
21245;SDS011;10781;50.928;4.440;2023-11-21T13:45:39;7.25;;;5.80;;
21245;SDS011;10781;50.928;4.440;2023-11-21T13:48:05;6.70;;;4.70;;
21245;SDS011;10781;50.928;4.440;2023-11-21T13:50:44;6.50;;;4.03;;
21245;SDS011;10781;50.928;4.440;2023-11-21T13:53:22;8.35;;;4.03;;
21245;SDS011;10781;50.928;4.440;2023-11-21T13:55:51;11.05;;;6.63;;
21245;SDS011;10781;50.928;4.440;2023-11-21T13:58:22;8.02;;;6.05;;
21245;SDS011;10781;50.928;4.440;2023-11-21T14:01:12;6.53;;;4.30;;
21245;SDS011;10781;50.928;4.440;2023-11-21T14:03:56;7.10;;;3.70;;
21245;SDS011;10781;50.928;4.440;2023-11-21T14:06:27;3.85;;;3.10;;
21245;SDS011;10781;50.928;4.440;2023-11-21T14:08:59;4.85;;;3.70;;
21245;SDS011;10781;50.928;4.440;2023-11-21T14:11:31;5.15;;;3.17;;
21245;SDS011;10781;50.928;4.440;2023-11-21T14:13:59;3.83;;;2.88;;
21245;SDS011;10781;50.928;4.440;2023-11-21T14:16:25;5.85;;;3.72;;
21245;SDS011;10781;50.928;4.440;2023-11-21T14:18:50;6.97;;;4.43;;
21245;SDS011;10781;50.928;4.440;2023-11-21T14:21:26;5.53;;;4.07;;
21245;SDS011;10781;50.928;4.440;2023-11-21T14:23:52;6.30;;;4.63;;
21245;SDS011;10781;50.928;4.440;2023-11-21T14:26:20;8.30;;;5.82;;
21245;SDS011;10781;50.928;4.440;2023-11-21T14:28:45;5.53;;;4.30;;
21245;SDS011;10781;50.928;4.440;2023-11-21T14:31:13;6.28;;;4.13;;
21245;SDS011;10781;50.928;4.440;2023-11-21T14:33:42;7.00;;;4.47;;
21245;SDS011;10781;50.928;4.440;2023-11-21T14:36:09;7.88;;;4.20;;
21245;SDS011;10781;50.928;4.440;2023-11-21T14:38:35;6.18;;;4.10;;